createdAt,value
2022-07-26T00:02:34.130Z,100048.34
2022-07-26T00:05:21.250Z,100043.03
2022-07-26T00:08:08.292Z,100028.31
2022-07-26T00:10:55.390Z,100054.22
2022-07-26T00:13:42.599Z,100039.31
2022-07-26T00:16:29.701Z,100049.84
2022-07-26T00:19:17.199Z,100045.41
2022-07-26T00:22:04.188Z,100022.94
2022-07-26T00:24:51.461Z,100041.88
2022-07-26T00:27:38.517Z,100049.13
2022-07-26T00:30:27.622Z,100027.84
2022-07-26T00:33:14.755Z,100031.06
2022-07-26T00:36:01.990Z,100029.38
2022-07-26T00:38:49.022Z,100031.06
2022-07-26T00:41:35.980Z,100023.28
2022-07-26T00:44:22.935Z,100025.84
2022-07-26T00:47:09.985Z,100019.75
2022-07-26T00:49:57.163Z,100017.88
2022-07-26T00:52:44.536Z,100021.84
2022-07-26T00:55:32.098Z,99997.63
2022-07-26T00:58:19.712Z,99993.09
2022-07-26T01:01:07.151Z,100016.28
2022-07-26T01:03:54.579Z,100003.81
2022-07-26T01:06:42.002Z,100010.03
2022-07-26T01:09:29.556Z,100002.09
2022-07-26T01:12:19.464Z,100001.38
2022-07-26T01:15:06.599Z,100004.94
2022-07-26T01:17:53.797Z,100009.03
2022-07-26T01:20:40.846Z,100009.22
2022-07-26T01:23:28.919Z,100010.88
2022-07-26T01:26:19.326Z,100009.38
2022-07-26T01:29:06.312Z,99997.47
2022-07-26T01:31:53.845Z,100010.72
2022-07-26T01:34:40.905Z,100024.22
2022-07-26T01:37:27.924Z,100008.91
2022-07-26T01:40:14.950Z,100004.25
2022-07-26T01:43:02.245Z,100013.44
2022-07-26T01:45:49.445Z,99982.38
2022-07-26T01:48:36.489Z,100014.44
2022-07-26T01:51:24.071Z,100020.66
2022-07-26T01:54:11.431Z,100014.75
2022-07-26T01:56:58.789Z,100020.66
2022-07-26T01:59:45.750Z,100018.13
2022-07-26T02:02:33.093Z,100015.59
2022-07-26T02:05:20.175Z,100012.06
2022-07-26T02:08:07.225Z,100019.69
2022-07-26T02:10:55.186Z,100012.41
2022-07-26T02:13:42.733Z,100016.13
2022-07-26T02:16:33.488Z,100008.03
2022-07-26T02:19:20.610Z,100006.66
2022-07-26T02:22:07.646Z,100010.19
2022-07-26T02:24:54.984Z,99994.84
2022-07-26T02:27:42.228Z,100006.94
2022-07-26T02:30:29.872Z,100010.66
2022-07-26T02:33:16.829Z,100007.25
2022-07-26T02:36:04.988Z,99994.78
2022-07-26T02:38:52.343Z,99994.06
2022-07-26T02:41:40.606Z,99985.47
2022-07-26T02:44:28.256Z,99991.38
2022-07-26T02:47:15.557Z,99992.25
2022-07-26T02:50:02.564Z,99991.38
2022-07-26T02:52:50.028Z,99975.19
2022-07-26T02:55:40.133Z,99966.91
2022-07-26T02:58:27.234Z,99964.34
2022-07-26T03:01:14.447Z,99968.88
2022-07-26T03:04:01.637Z,99979.06
2022-07-26T03:06:48.648Z,99966.44
2022-07-26T03:09:35.787Z,99960.81
2022-07-26T03:12:22.876Z,99973.81
2022-07-26T03:15:10.067Z,99976.06
2022-07-26T03:17:57.154Z,99974.38
2022-07-26T03:20:44.625Z,99971.81
2022-07-26T03:23:31.752Z,99964.72
2022-07-26T03:26:19.147Z,99965.34
2022-07-26T03:29:06.401Z,99968.13
2022-07-26T03:31:55.401Z,99963.56
2022-07-26T03:34:42.968Z,99968.13
2022-07-26T03:37:44.856Z,99941.69
2022-07-26T03:40:35.556Z,99955.78
2022-07-26T03:43:23.493Z,99954.06
2022-07-26T03:46:11.585Z,99954.22
2022-07-26T03:48:58.753Z,99956.25
2022-07-26T03:51:45.777Z,99953.41
2022-07-26T03:54:33.022Z,99954.06
2022-07-26T03:57:20.391Z,99947.78
2022-07-26T04:00:07.419Z,99964.03
2022-07-26T04:02:54.475Z,99966.75
2022-07-26T04:05:48.644Z,99954.38
2022-07-26T04:08:36.772Z,99951.03
2022-07-26T04:11:26.426Z,99946.91
2022-07-26T04:14:17.132Z,99956.09
2022-07-26T04:17:04.281Z,99949.16
2022-07-26T04:19:51.341Z,99955.41
2022-07-26T04:22:38.473Z,99941.69
2022-07-26T04:25:27.444Z,99936.13
2022-07-26T04:28:27.731Z,99945.47
2022-07-26T04:31:19.502Z,99925.00
2022-07-26T04:34:07.034Z,99947.16
2022-07-26T04:36:54.290Z,99950.88
2022-07-26T04:39:41.657Z,99929.38
2022-07-26T04:42:28.792Z,99936.69
2022-07-26T04:45:15.845Z,99939.91
2022-07-26T04:48:04.082Z,99940.28
2022-07-26T04:50:51.168Z,99945.50
2022-07-26T04:53:38.526Z,99940.44
2022-07-26T04:56:25.835Z,99944.38
2022-07-26T04:59:13.065Z,99929.28
2022-07-26T05:02:00.261Z,99932.50
2022-07-26T05:04:47.387Z,99939.81
2022-07-26T05:07:34.353Z,99939.13
2022-07-26T05:10:21.493Z,99927.41
2022-07-26T05:13:09.324Z,99950.00
2022-07-26T05:15:59.653Z,99936.13
2022-07-26T05:18:49.156Z,99946.13
2022-07-26T05:21:37.249Z,99942.41
2022-07-26T05:24:24.502Z,99954.22
2022-07-26T05:27:11.532Z,99920.19
2022-07-26T05:29:58.504Z,99949.53
2022-07-26T05:32:45.889Z,99948.66
2022-07-26T05:35:33.247Z,99942.88
2022-07-26T05:38:20.221Z,99954.94
2022-07-26T05:41:07.424Z,99940.88
2022-07-26T05:43:54.807Z,99941.75
2022-07-26T05:46:42.178Z,99949.38
2022-07-26T05:49:29.157Z,99939.22
2022-07-26T05:52:30.907Z,99937.19
2022-07-26T05:55:18.338Z,99933.13
2022-07-26T05:58:05.449Z,99934.47
2022-07-26T06:00:52.732Z,99936.19
2022-07-26T06:03:42.584Z,99943.13
2022-07-26T06:06:29.861Z,99945.66
2022-07-26T06:09:16.977Z,99934.09
2022-07-26T06:12:04.053Z,99954.78
2022-07-26T06:14:51.043Z,99951.38
2022-07-26T06:17:38.127Z,99958.59
2022-07-26T06:20:25.649Z,99955.25
2022-07-26T06:23:12.569Z,99934.06
2022-07-26T06:26:00.065Z,99940.81
2022-07-26T06:28:47.126Z,99955.53
2022-07-26T06:31:34.772Z,99953.84
2022-07-26T06:34:22.042Z,99908.09
2022-07-26T06:37:09.202Z,99934.06
2022-07-26T06:39:56.259Z,99933.91
2022-07-26T06:42:44.482Z,99943.75
2022-07-26T06:45:32.288Z,99938.50
2022-07-26T06:48:19.541Z,99927.88
2022-07-26T06:51:07.011Z,99926.00
2022-07-26T06:53:54.199Z,99949.53
2022-07-26T06:56:41.239Z,99954.78
2022-07-26T06:59:28.459Z,99940.72
2022-07-26T07:02:15.773Z,99950.06
2022-07-26T07:05:02.940Z,99948.06
2022-07-26T07:07:50.433Z,99947.91
2022-07-26T07:10:39.292Z,99950.28
2022-07-26T07:13:26.528Z,99949.13
2022-07-26T07:16:13.531Z,99951.81
2022-07-26T07:19:00.654Z,99935.28
2022-07-26T07:21:47.805Z,99917.31
2022-07-26T07:24:34.886Z,99941.03
2022-07-26T07:27:21.989Z,99930.69
2022-07-26T07:30:09.043Z,99936.47
2022-07-26T07:32:56.484Z,99931.56
2022-07-26T07:35:44.494Z,99928.53
2022-07-26T07:38:32.553Z,99919.09
2022-07-26T07:41:24.407Z,99936.31
2022-07-26T07:44:11.622Z,99937.03
2022-07-26T07:46:58.765Z,99902.25
2022-07-26T07:49:45.802Z,99933.47
2022-07-26T07:52:32.689Z,99927.38
2022-07-26T07:55:28.664Z,99930.53
2022-07-26T07:58:24.899Z,99931.78
2022-07-26T08:01:15.663Z,99937.84
2022-07-26T08:04:02.658Z,99930.59
2022-07-26T08:06:51.085Z,99926.22
2022-07-26T08:09:43.010Z,99925.22
2022-07-26T08:12:30.331Z,99888.91
2022-07-26T08:15:17.441Z,99921.00
2022-07-26T08:18:06.604Z,99926.22
2022-07-26T08:20:55.725Z,99914.50
2022-07-26T08:23:42.935Z,99917.06
2022-07-26T08:26:30.010Z,99914.03
2022-07-26T08:29:17.167Z,99904.88
2022-07-26T08:32:05.120Z,99922.44
2022-07-26T08:34:53.029Z,99918.06
2022-07-26T08:37:40.118Z,99916.53
2022-07-26T08:40:27.947Z,99895.50
2022-07-26T08:43:16.498Z,99905.75
2022-07-26T08:46:03.605Z,99910.44
2022-07-26T08:48:50.651Z,99905.19
2022-07-26T08:51:41.541Z,99900.97
2022-07-26T08:54:30.643Z,99887.63
2022-07-26T08:57:17.741Z,99895.13
2022-07-26T09:00:05.004Z,99887.84
2022-07-26T09:03:04.316Z,99882.28
2022-07-26T09:05:54.118Z,99879.28
2022-07-26T09:08:47.351Z,99861.63
2022-07-26T09:11:43.900Z,99872.72
2022-07-26T09:14:30.924Z,99864.78
2022-07-26T09:17:20.057Z,99865.63
2022-07-26T09:20:25.940Z,99856.31
2022-07-26T09:23:22.317Z,99861.06
2022-07-26T09:26:09.472Z,99868.16
2022-07-26T09:28:56.702Z,99842.97
2022-07-26T09:31:43.944Z,99865.63
2022-07-26T09:34:30.986Z,99855.69
2022-07-26T09:37:18.278Z,99820.09
2022-07-26T09:40:18.292Z,99837.81
2022-07-26T09:43:23.918Z,99850.28
2022-07-26T09:46:32.314Z,99852.13
2022-07-26T09:49:40.253Z,99829.50
2022-07-26T09:52:41.573Z,99822.25
2022-07-26T09:55:39.293Z,99830.19
2022-07-26T09:58:35.061Z,99833.50
2022-07-26T10:01:02.692Z,99836.50
2022-07-26T10:03:31.563Z,99837.66
2022-07-26T10:05:59.418Z,99808.56
2022-07-26T10:08:27.423Z,99831.72
2022-07-26T10:11:07.185Z,99817.41
2022-07-26T10:13:34.548Z,99820.94
2022-07-26T10:16:02.134Z,99811.31
2022-07-26T10:18:39.293Z,99796.97
2022-07-26T10:21:25.207Z,99794.44
2022-07-26T10:23:59.646Z,99754.75
2022-07-26T10:26:32.548Z,99785.53
2022-07-26T10:29:15.217Z,99781.97
2022-07-26T10:32:02.050Z,99776.03
2022-07-26T10:34:35.114Z,99775.56
2022-07-26T10:37:05.258Z,99765.25
2022-07-26T10:39:32.424Z,99756.13
2022-07-26T10:42:04.018Z,99779.63
2022-07-26T10:44:33.141Z,99775.94
2022-07-26T10:47:09.518Z,99773.22
2022-07-26T10:49:44.465Z,99764.13
2022-07-26T10:52:16.447Z,99768.53
2022-07-26T10:55:04.255Z,99765.66
2022-07-26T10:57:35.464Z,99757.25
2022-07-26T11:00:21.258Z,99747.31
2022-07-26T11:02:57.555Z,99735.66
2022-07-26T11:05:31.016Z,99740.72
2022-07-26T11:08:16.491Z,99748.66
2022-07-26T11:10:47.718Z,99745.84
2022-07-26T11:13:14.791Z,99734.88
2022-07-26T11:15:46.530Z,99739.09
2022-07-26T11:18:32.474Z,99731.69
2022-07-26T11:21:18.678Z,99729.69
2022-07-26T11:23:46.944Z,99727.47
2022-07-26T11:26:19.657Z,99728.16
2022-07-26T11:28:51.266Z,99730.53
2022-07-26T11:31:20.177Z,99708.75
2022-07-26T11:34:10.237Z,99718.06
2022-07-26T11:37:04.033Z,99720.81
2022-07-26T11:39:54.018Z,99715.72
2022-07-26T11:42:41.177Z,99709.00
2022-07-26T11:45:31.875Z,99694.50
2022-07-26T11:48:18.869Z,99646.34
2022-07-26T11:50:47.164Z,99710.03
2022-07-26T11:53:36.418Z,99710.38
2022-07-26T11:56:15.996Z,99694.00
2022-07-26T11:58:45.295Z,99702.44
2022-07-26T12:01:14.810Z,99698.56
2022-07-26T12:03:43.985Z,99704.31
2022-07-26T12:06:14.288Z,99702.28
2022-07-26T12:08:43.366Z,99696.72
2022-07-26T12:11:11.280Z,99691.81
2022-07-26T12:14:01.375Z,99693.84
2022-07-26T12:16:37.215Z,99689.97
2022-07-26T12:19:06.490Z,99684.22
2022-07-26T12:21:50.834Z,99683.06
2022-07-26T12:24:55.912Z,99685.09
2022-07-26T12:27:30.758Z,99678.19
2022-07-26T12:30:23.614Z,99687.47
2022-07-26T12:33:14.303Z,99673.09
2022-07-26T12:36:01.322Z,99673.94
2022-07-26T12:39:01.372Z,99675.13
2022-07-26T12:41:59.591Z,99680.66
2022-07-26T12:44:46.561Z,99685.59
2022-07-26T12:47:33.536Z,99676.28
2022-07-26T12:50:20.626Z,99671.22
2022-07-26T12:53:08.217Z,99687.59
2022-07-26T12:55:55.894Z,99688.44
2022-07-26T12:58:42.974Z,99694.00
2022-07-26T13:01:30.145Z,99672.56
2022-07-26T13:04:17.560Z,99681.34
2022-07-26T13:07:04.586Z,99678.81
2022-07-26T13:10:13.981Z,99675.94
2022-07-26T13:12:58.815Z,99676.81
2022-07-26T13:15:45.874Z,99675.25
2022-07-26T13:18:32.952Z,99665.97
2022-07-26T13:21:19.929Z,99655.53
2022-07-26T13:24:08.588Z,99675.94
2022-07-26T13:26:56.371Z,99657.72
2022-07-26T13:29:47.026Z,99680.00
2022-07-26T13:32:33.930Z,99681.84
2022-07-26T13:35:20.900Z,99682.19
2022-07-26T13:38:07.866Z,99681.34
2022-07-26T13:40:55.018Z,99659.38
2022-07-26T13:43:41.940Z,99681.16
2022-07-26T13:46:33.143Z,99688.44
2022-07-26T13:49:22.640Z,99684.91
2022-07-26T13:52:18.893Z,99671.22
2022-07-26T13:55:06.666Z,99674.72
2022-07-26T13:57:56.901Z,99666.63
2022-07-26T14:00:49.472Z,99647.53
2022-07-26T14:03:36.888Z,99643.13
2022-07-26T14:06:23.840Z,99636.19
2022-07-26T14:09:11.261Z,99635.47
2022-07-26T14:11:59.031Z,99656.56
2022-07-26T14:14:46.123Z,99640.03
2022-07-26T14:17:33.062Z,99647.28
2022-07-26T14:20:20.261Z,99647.28
2022-07-26T14:23:08.496Z,99650.47
2022-07-26T14:25:55.850Z,99619.22
2022-07-26T14:28:42.987Z,99630.88
2022-07-26T14:31:30.276Z,99637.94
2022-07-26T14:34:01.274Z,99639.75
2022-07-26T14:36:28.361Z,99623.53
2022-07-26T14:39:15.339Z,99632.28
2022-07-26T14:42:02.346Z,99634.47
2022-07-26T14:44:49.431Z,99633.47
2022-07-26T14:47:16.690Z,99640.38
2022-07-26T14:49:43.728Z,99647.47
2022-07-26T14:52:11.106Z,99646.94
2022-07-26T14:54:38.190Z,99645.25
2022-07-26T14:57:05.185Z,99640.34
2022-07-26T14:59:32.165Z,99645.56
2022-07-26T15:02:02.633Z,99637.63
2022-07-26T15:04:32.667Z,99632.09
2022-07-26T15:07:00.226Z,99633.56
2022-07-26T15:09:27.105Z,99640.88
2022-07-26T15:11:54.378Z,99642.72
2022-07-26T15:14:21.442Z,99640.03
2022-07-26T15:16:48.364Z,99643.41
2022-07-26T15:19:15.358Z,99631.59
2022-07-26T15:21:42.544Z,99643.41
2022-07-26T15:24:10.276Z,99636.81
2022-07-26T15:26:38.707Z,99651.53
2022-07-26T15:29:25.863Z,99653.56
2022-07-26T15:32:12.846Z,99650.53
2022-07-26T15:34:48.025Z,99653.94
2022-07-26T15:37:14.978Z,99648.56
2022-07-26T15:39:42.101Z,99664.47
2022-07-26T15:42:09.914Z,99644.88
2022-07-26T15:44:38.464Z,99646.09
2022-07-26T15:47:05.964Z,99643.22
2022-07-26T15:49:53.790Z,99638.16
2022-07-26T15:52:40.870Z,99612.72
2022-07-26T15:55:29.918Z,99597.03
2022-07-26T15:58:16.878Z,99642.94
2022-07-26T16:01:04.545Z,99636.00
2022-07-26T16:03:51.701Z,99611.91
2022-07-26T16:06:38.873Z,99629.09
2022-07-26T16:09:26.059Z,99628.59
2022-07-26T16:12:13.016Z,99625.75
2022-07-26T16:15:01.139Z,99628.31
2022-07-26T16:17:48.071Z,99624.28
2022-07-26T16:20:35.046Z,99633.72
2022-07-26T16:23:22.694Z,99629.34
2022-07-26T16:26:09.808Z,99630.69
2022-07-26T16:28:57.482Z,99632.22
2022-07-26T16:31:44.862Z,99601.50
2022-07-26T16:34:32.190Z,99579.88
2022-07-26T16:37:19.234Z,99605.38
2022-07-26T16:40:06.244Z,99628.31
2022-07-26T16:42:53.269Z,99637.13
2022-07-26T16:45:40.555Z,99629.00
2022-07-26T16:48:27.584Z,99627.50
2022-07-26T16:51:14.716Z,99632.56
2022-07-26T16:54:01.736Z,99640.34
2022-07-26T16:56:48.854Z,99634.25
2022-07-26T16:59:35.976Z,99643.38
2022-07-26T17:02:23.507Z,99639.81
2022-07-26T17:05:10.526Z,99634.59
2022-07-26T17:07:57.742Z,99633.09
2022-07-26T17:10:45.894Z,99640.16
2022-07-26T17:13:12.872Z,99620.56
2022-07-26T17:15:59.920Z,99636.81
2022-07-26T17:18:27.066Z,99639.69
2022-07-26T17:21:14.131Z,99647.78
2022-07-26T17:24:05.273Z,99643.34
2022-07-26T17:26:53.090Z,99637.25
2022-07-26T17:29:36.257Z,99649.94
2022-07-26T17:32:03.654Z,99632.06
2022-07-26T17:34:30.602Z,99645.41
2022-07-26T17:37:03.037Z,99653.84
2022-07-26T17:39:50.810Z,99662.28
2022-07-26T17:42:20.478Z,99617.53
2022-07-26T17:45:07.548Z,99639.69
2022-07-26T17:47:54.468Z,99644.41
2022-07-26T17:50:41.840Z,99601.50
2022-07-26T17:53:34.031Z,99649.78
2022-07-26T17:56:22.509Z,99632.41
2022-07-26T17:58:49.652Z,99642.69
2022-07-26T18:01:36.867Z,99645.91
2022-07-26T18:04:38.260Z,99644.38
2022-07-26T18:07:25.346Z,99606.19
2022-07-26T18:10:12.241Z,99653.66
2022-07-26T18:12:59.221Z,99649.09
2022-07-26T18:15:46.394Z,99650.28
2022-07-26T18:18:37.453Z,99636.06
2022-07-26T18:21:24.425Z,99652.78
2022-07-26T18:24:17.937Z,99651.59
2022-07-26T18:27:05.063Z,99643.13
2022-07-26T18:29:52.286Z,99662.22
2022-07-26T18:32:39.358Z,99662.38
2022-07-26T18:35:26.589Z,99657.16
2022-07-26T18:38:13.678Z,99660.84
2022-07-26T18:41:00.791Z,99660.00
2022-07-26T18:43:49.915Z,99658.31
2022-07-26T18:46:36.901Z,99658.09
2022-07-26T18:49:23.920Z,99667.19
2022-07-26T18:52:28.867Z,99666.69
2022-07-26T18:55:18.858Z,99660.94
2022-07-26T18:58:07.048Z,99666.66
2022-07-26T19:00:55.751Z,99631.19
2022-07-26T19:03:42.776Z,99654.00
2022-07-26T19:06:30.109Z,99651.47
2022-07-26T19:09:17.075Z,99632.00
2022-07-26T19:12:07.022Z,99632.81
2022-07-26T19:14:53.998Z,99650.88
2022-07-26T19:17:41.804Z,99651.91
2022-07-26T19:20:30.367Z,99646.84
2022-07-26T19:23:17.477Z,99654.94
2022-07-26T19:26:04.433Z,99645.44
2022-07-26T19:28:51.466Z,99613.69
2022-07-26T19:31:38.811Z,99655.41
2022-07-26T19:34:26.232Z,99618.38
2022-07-26T19:37:13.298Z,99618.72
2022-07-26T19:40:00.387Z,99664.16
2022-07-26T19:42:52.554Z,99642.34
2022-07-26T19:45:39.628Z,99576.25
2022-07-26T19:48:26.854Z,99664.63
2022-07-26T19:50:54.078Z,99667.66
2022-07-26T19:53:21.268Z,99660.38
2022-07-26T19:55:48.163Z,99665.63
2022-07-26T19:58:15.256Z,99673.06
2022-07-26T20:00:42.358Z,99679.09
2022-07-26T20:03:09.665Z,99680.81
2022-07-26T20:05:38.794Z,99665.63
2022-07-26T20:08:06.078Z,99671.34
2022-07-26T20:10:33.198Z,99664.75
2022-07-26T20:13:00.459Z,99672.69
2022-07-26T20:15:27.440Z,99676.38
2022-07-26T20:17:54.605Z,99673.69
2022-07-26T20:20:23.259Z,99663.06
2022-07-26T20:22:50.362Z,99665.59
2022-07-26T20:25:21.417Z,99672.69
2022-07-26T20:27:51.605Z,99662.91
2022-07-26T20:30:18.729Z,99657.50
2022-07-26T20:32:45.825Z,99611.72
2022-07-26T20:35:13.218Z,99648.56
2022-07-26T20:37:41.274Z,99653.97
2022-07-26T20:40:09.272Z,99662.06
2022-07-26T20:42:40.444Z,99649.06
2022-07-26T20:45:11.409Z,99657.16
2022-07-26T20:47:40.646Z,99664.06
2022-07-26T20:50:11.902Z,99660.69
2022-07-26T20:52:39.814Z,99651.53
2022-07-26T20:55:07.702Z,99651.91
2022-07-26T20:57:35.417Z,99656.28
2022-07-26T21:00:04.814Z,99654.78
2022-07-26T21:02:31.854Z,99649.38
2022-07-26T21:05:18.775Z,99652.22
2022-07-26T21:08:06.256Z,99644.47
2022-07-26T21:10:53.337Z,99655.75
2022-07-26T21:13:41.041Z,99651.84
2022-07-26T21:16:27.975Z,99652.56
2022-07-26T21:19:15.318Z,99654.22
2022-07-26T21:22:02.440Z,99669.75
2022-07-26T21:24:49.938Z,99657.31
2022-07-26T21:27:37.010Z,99647.22
2022-07-26T21:30:25.105Z,99602.09
2022-07-26T21:33:12.152Z,99648.03
2022-07-26T21:35:59.941Z,99634.19
2022-07-26T21:38:47.037Z,99643.66
2022-07-26T21:41:34.162Z,99642.50
2022-07-26T21:44:21.113Z,99609.38
2022-07-26T21:47:08.017Z,99638.81
2022-07-26T21:49:55.515Z,99593.00
2022-07-26T21:52:42.557Z,99639.47
2022-07-26T21:55:29.715Z,99637.78
2022-07-26T21:58:16.625Z,99639.13
2022-07-26T22:01:06.400Z,99643.03
2022-07-26T22:03:55.285Z,99630.72
2022-07-26T22:06:42.502Z,99621.25
2022-07-26T22:09:29.541Z,99639.31
2022-07-26T22:12:16.640Z,99639.47
2022-07-26T22:15:03.686Z,99645.56
2022-07-26T22:17:50.706Z,99642.88
2022-07-26T22:20:37.754Z,99644.53
2022-07-26T22:23:30.467Z,99633.91
2022-07-26T22:26:19.552Z,99634.78
2022-07-26T22:29:06.566Z,99643.72
2022-07-26T22:31:53.577Z,99638.50
2022-07-26T22:34:40.682Z,99621.91
2022-07-26T22:37:27.697Z,99644.88
2022-07-26T22:40:14.670Z,99640.16
2022-07-26T22:43:01.779Z,99635.94
2022-07-26T22:45:49.878Z,99634.41
2022-07-26T22:48:38.703Z,99643.03
2022-07-26T22:51:26.350Z,99644.88
2022-07-26T22:54:13.477Z,99646.75
2022-07-26T22:57:00.433Z,99639.78
2022-07-26T22:59:47.673Z,99634.56
2022-07-26T23:02:35.106Z,99632.19
2022-07-26T23:05:25.565Z,99634.06
2022-07-26T23:08:46.419Z,99643.13
2022-07-26T23:11:34.558Z,99640.59
2022-07-26T23:14:21.670Z,99639.75
2022-07-26T23:17:08.661Z,99644.31
2022-07-26T23:19:55.575Z,99639.75
2022-07-26T23:22:42.535Z,99643.47
2022-07-26T23:25:29.689Z,99615.00
2022-07-26T23:28:24.820Z,99633.84
2022-07-26T23:31:23.607Z,99636.72
2022-07-26T23:34:10.711Z,99636.00
2022-07-26T23:36:57.825Z,99637.19
2022-07-26T23:39:44.756Z,99634.50
2022-07-26T23:42:31.762Z,99629.25
2022-07-26T23:45:18.767Z,99624.34
2022-07-26T23:48:07.489Z,99632.28
2022-07-26T23:50:54.503Z,99636.97
2022-07-26T23:53:41.418Z,99635.59
2022-07-26T23:56:28.581Z,99633.19
2022-07-26T23:59:15.871Z,99613.91
